Valparaiso, FL

9:00 PM CDT on August 20, 2014 (GMT -0500)
Eglin Air Force Base | Change Station
CLOSE
Current Station
Airport
Location: Valparaiso,
Elevation: 85 ft
Nearby Weather Stations
Active Advisory: Special Statement Active Notice: Public Information Statement

Elev 85 ft 30.48 °N, 86.53 °W | Updated 5 minutes ago

Mostly Cloudy
Mostly Cloudy
77 °F
Feels Like 77 °F
N
0
Wind Variable Wind from North

Today
High -- | Low -- °F
--% Chance of Precip.
Yesterday
High -- | Low -- °F
Precip. -- in
6:15 AM 7:22 PM
Waning Crescent, 17% visible
Pressure 30.11 in
Visibility 10.0 miles
Clouds Few 8000 ft
Mostly Cloudy 25000 ft
Dew Point 76 °F
Humidity 95%
Rainfall 4.62 in
Snow Depth Not available.
UV 0 out of 12
Pollen 7.10 out of 12
Air Quality Not available.
Flu Activity Not available.
METAR KVPS 210155Z 00000KT 10SM FEW080 BKN250 25/24 A3009 RMK AO2A SLP195 T02520243 $

More Conditions Fewer Conditions

Pressure 30.11 in
Visibility 10.0 miles
Clouds Few 8000 ft
Mostly Cloudy 25000 ft
Dew Point 76 °F
Humidity 95%
Rainfall 4.62 in
Snow Depth Not available.
UV 0 out of 12
Pollen 7.10 out of 12
Air Quality Not available.
Flu Activity Not available.
METAR KVPS 210155Z 00000KT 10SM FEW080 BKN250 25/24 A3009 RMK AO2A SLP195 T02520243 $

More Conditions Fewer Conditions

10-Day Weather Forecast

Almanac

Astronomy

Aug. 20, 2014 Rise Set
Actual Time 6:15 AM CDT 7:22 PM CDT
Civil Twilight 5:50 AM CDT 7:47 PM CDT
Nautical Twilight 5:21 AM CDT 8:17 PM CDT
Astronomical Twilight 4:50 AM CDT 8:47 PM CDT
Moon 2:02 AM CDT (8/20) 4:00 PM CDT (8/20)
Length of Visible Light 13h 56m
Length of Day
13h 06m
Tomorrow will be 1m 40s shorter.
Waning Crescent, 17% of the Moon is Illuminated
Today
Waning Crescent
Aug 25
New
Sep 2
First Quarter
Sep 8
Full
Sep 15
Last Quarter

Today's Extremes

State Highs State Lows

Community

WunderPhotos

Upload Photos

1,745,853 photos uploaded!

WunderBlogs® & News

Nearby

Air Quality

  Air Quality AQ Index Pollutant
Yesterday Moderate
PM2.5
Yesterday Good
OZONE
Wednesday Moderate
PM2.5
Wednesday Good
OZONE
Thursday Moderate
PM2.5
Thursday Good
OZONE

Snow Depth

Station Depth Elevation
No new snow has been reported.

Earthquake Activity

City Distance Mag. Time & Date
No recent earthquake activity has been reported nearby.
Minimum magnitude displayed is 2.5.

Coastal Water Temperatures

Place Temperature
No Stations Reporting

Nearby Weather Stations